createdAt,value
2023-05-17T00:00:22.560Z,4.45
2023-05-17T00:02:53.019Z,4.32
2023-05-17T00:05:21.580Z,4.63
2023-05-17T00:07:50.465Z,4.20
2023-05-17T00:10:19.083Z,4.28
2023-05-17T00:12:47.728Z,4.65
2023-05-17T00:15:16.041Z,4.78
2023-05-17T00:17:44.451Z,5.38
2023-05-17T00:20:14.636Z,4.43
2023-05-17T00:22:47.290Z,4.05
2023-05-17T00:25:15.574Z,4.63
2023-05-17T00:27:43.875Z,4.70
2023-05-17T00:30:12.706Z,4.95
2023-05-17T00:32:41.343Z,4.32
2023-05-17T00:35:09.977Z,4.65
2023-05-17T00:37:39.698Z,3.97
2023-05-17T00:40:09.871Z,4.72
2023-05-17T00:42:38.185Z,4.60
2023-05-17T00:45:08.456Z,5.10
2023-05-17T00:47:36.932Z,5.00
2023-05-17T00:50:06.678Z,4.65
2023-05-17T00:52:35.081Z,4.28
2023-05-17T00:55:05.541Z,4.10
2023-05-17T00:57:34.436Z,4.13
2023-05-17T01:00:03.715Z,4.57
2023-05-17T01:02:32.120Z,4.57
2023-05-17T01:05:00.923Z,4.25
2023-05-17T01:07:29.352Z,4.50
2023-05-17T01:09:57.793Z,5.35
2023-05-17T01:12:43.368Z,4.18
2023-05-17T01:15:17.040Z,4.10
2023-05-17T01:17:57.031Z,4.05
2023-05-17T01:20:30.444Z,4.75
2023-05-17T01:23:35.573Z,4.75
2023-05-17T01:26:12.820Z,3.97
2023-05-17T01:28:45.673Z,5.15
2023-05-17T01:31:15.640Z,5.18
2023-05-17T01:33:44.983Z,4.85
2023-05-17T01:36:13.464Z,4.43
2023-05-17T01:38:41.920Z,4.93
2023-05-17T01:41:28.509Z,5.47
2023-05-17T01:44:04.382Z,4.47
2023-05-17T01:46:40.653Z,4.53
2023-05-17T01:49:15.007Z,4.95
2023-05-17T01:51:50.046Z,4.47
2023-05-17T01:54:24.739Z,4.32
2023-05-17T01:56:59.597Z,4.85
2023-05-17T01:59:30.928Z,4.75
2023-05-17T02:02:06.161Z,4.22
2023-05-17T02:04:36.131Z,5.32
2023-05-17T02:07:05.448Z,4.32
2023-05-17T02:09:33.940Z,5.38
2023-05-17T02:12:02.630Z,5.50
2023-05-17T02:14:32.331Z,4.85
2023-05-17T02:17:01.751Z,5.10
2023-05-17T02:19:30.265Z,5.38
2023-05-17T02:21:59.036Z,5.20
2023-05-17T02:24:27.530Z,4.72
2023-05-17T02:26:55.872Z,4.82
2023-05-17T02:29:24.863Z,4.90
2023-05-17T02:31:54.563Z,4.45
2023-05-17T02:34:22.943Z,4.53
2023-05-17T02:36:52.146Z,4.50
2023-05-17T02:39:20.577Z,4.35
2023-05-17T02:41:49.088Z,5.15
2023-05-17T02:44:17.467Z,5.07
2023-05-17T02:46:45.905Z,4.80
2023-05-17T02:49:15.649Z,4.05
2023-05-17T02:51:44.033Z,4.85
2023-05-17T02:54:12.436Z,5.10
2023-05-17T02:56:41.261Z,4.88
2023-05-17T02:59:09.672Z,4.63
2023-05-17T03:01:38.001Z,5.18
2023-05-17T03:04:06.477Z,5.05
2023-05-17T03:06:36.251Z,5.07
2023-05-17T03:09:04.714Z,4.50
2023-05-17T03:11:33.205Z,5.18
2023-05-17T03:14:01.596Z,4.82
2023-05-17T03:16:29.909Z,4.60
2023-05-17T03:18:58.369Z,4.78
2023-05-17T03:21:26.907Z,4.10
2023-05-17T03:23:56.629Z,5.15
2023-05-17T03:26:25.053Z,5.10
2023-05-17T03:28:53.366Z,5.25
2023-05-17T03:31:21.789Z,5.35
2023-05-17T03:33:50.523Z,5.07
2023-05-17T03:36:19.008Z,4.60
2023-05-17T03:38:47.528Z,4.53
2023-05-17T03:41:17.610Z,4.35
2023-05-17T03:43:45.960Z,4.80
2023-05-17T03:46:14.604Z,4.95
2023-05-17T03:48:43.388Z,4.97
2023-05-17T03:51:11.841Z,5.07
2023-05-17T03:53:43.459Z,5.05
2023-05-17T03:56:12.056Z,4.60
2023-05-17T03:58:42.390Z,5.30
2023-05-17T04:01:10.723Z,4.97
2023-05-17T04:03:39.868Z,5.68
2023-05-17T04:06:09.428Z,5.40
2023-05-17T04:08:37.949Z,5.78
2023-05-17T04:11:10.576Z,5.03
2023-05-17T04:13:39.020Z,5.57
2023-05-17T04:16:10.058Z,5.03
2023-05-17T04:18:40.039Z,4.95
2023-05-17T04:21:08.613Z,5.93
2023-05-17T04:23:37.335Z,3.95
2023-05-17T04:26:06.341Z,5.15
2023-05-17T04:28:35.411Z,4.88
2023-05-17T04:31:04.944Z,5.88
2023-05-17T04:33:34.783Z,5.10
2023-05-17T04:36:03.993Z,5.50
2023-05-17T04:38:32.369Z,4.93
2023-05-17T04:41:04.661Z,5.10
2023-05-17T04:43:34.017Z,5.47
2023-05-17T04:46:02.629Z,4.55
2023-05-17T04:48:34.352Z,5.40
2023-05-17T04:51:04.130Z,4.65
2023-05-17T04:53:33.407Z,4.93
2023-05-17T04:56:01.822Z,4.45
2023-05-17T04:58:30.169Z,4.82
2023-05-17T05:00:58.740Z,5.07
2023-05-17T05:03:27.563Z,4.70
2023-05-17T05:05:57.337Z,5.30
2023-05-17T05:08:26.305Z,4.43
2023-05-17T05:10:54.643Z,4.57
2023-05-17T05:13:23.790Z,4.47
2023-05-17T05:15:52.225Z,3.85
2023-05-17T05:18:21.371Z,4.07
2023-05-17T05:20:52.933Z,4.60
2023-05-17T05:23:22.890Z,4.18
2023-05-17T05:25:54.034Z,4.25
2023-05-17T05:28:25.223Z,4.13
2023-05-17T05:31:00.603Z,4.15
2023-05-17T05:33:29.473Z,4.25
2023-05-17T05:35:57.953Z,3.55
2023-05-17T05:38:27.936Z,3.50
2023-05-17T05:40:56.340Z,4.05
2023-05-17T05:43:25.028Z,3.90
2023-05-17T05:45:53.487Z,3.72
2023-05-17T05:48:22.228Z,3.70
2023-05-17T05:50:50.775Z,2.88
2023-05-17T05:53:19.884Z,3.30
2023-05-17T05:55:50.279Z,4.45
2023-05-17T05:58:18.663Z,3.42
2023-05-17T06:00:47.020Z,2.97
2023-05-17T06:03:16.174Z,3.22
2023-05-17T06:05:44.640Z,3.38
2023-05-17T06:08:13.067Z,2.95
2023-05-17T06:10:41.451Z,3.40
2023-05-17T06:13:13.404Z,2.75
2023-05-17T06:15:42.185Z,2.80
2023-05-17T06:18:10.611Z,2.95
2023-05-17T06:20:39.026Z,3.17
2023-05-17T06:23:07.424Z,3.25
2023-05-17T06:25:35.837Z,3.85
2023-05-17T06:28:05.325Z,3.00
2023-05-17T06:30:37.356Z,3.33
2023-05-17T06:33:05.918Z,2.85
2023-05-17T06:35:43.688Z,2.85
2023-05-17T06:38:16.219Z,3.22
2023-05-17T06:40:44.552Z,2.72
2023-05-17T06:43:12.880Z,2.78
2023-05-17T06:45:42.586Z,2.70
2023-05-17T06:48:11.312Z,3.25
2023-05-17T06:50:40.048Z,2.65
2023-05-17T06:53:08.869Z,2.47
2023-05-17T06:55:37.577Z,2.65
2023-05-17T06:58:06.118Z,2.35
2023-05-17T07:00:34.631Z,2.90
2023-05-17T07:03:04.903Z,2.50
2023-05-17T07:05:33.623Z,2.83
2023-05-17T07:08:02.516Z,2.38
2023-05-17T07:10:30.951Z,2.65
2023-05-17T07:13:00.631Z,2.88
2023-05-17T07:15:30.472Z,2.58
2023-05-17T07:17:59.536Z,2.90
2023-05-17T07:20:29.572Z,3.42
2023-05-17T07:22:57.958Z,3.03
2023-05-17T07:25:26.412Z,2.70
2023-05-17T07:27:54.906Z,2.53
2023-05-17T07:30:23.359Z,2.65
2023-05-17T07:32:54.915Z,3.50
2023-05-17T07:35:23.296Z,2.35
2023-05-17T07:37:53.127Z,2.65
2023-05-17T07:40:22.097Z,2.80
2023-05-17T07:42:50.557Z,2.88
2023-05-17T07:45:21.124Z,2.13
2023-05-17T07:47:52.921Z,2.13
2023-05-17T07:50:21.363Z,2.78
2023-05-17T07:52:49.957Z,2.30
2023-05-17T07:55:20.692Z,1.80
2023-05-17T07:57:49.424Z,2.88
2023-05-17T08:00:19.478Z,2.83
2023-05-17T08:02:48.943Z,2.65
2023-05-17T08:05:20.132Z,2.90
2023-05-17T08:07:48.789Z,2.92
2023-05-17T08:10:19.174Z,2.47
2023-05-17T08:12:47.844Z,2.53
2023-05-17T08:15:16.197Z,2.35
2023-05-17T08:17:46.871Z,2.28
2023-05-17T08:20:15.801Z,2.40
2023-05-17T08:22:44.211Z,3.05
2023-05-17T08:25:12.595Z,2.10
2023-05-17T08:27:43.221Z,2.60
2023-05-17T08:30:17.982Z,2.97
2023-05-17T08:32:50.638Z,2.15
2023-05-17T08:35:19.205Z,2.13
2023-05-17T08:37:48.042Z,2.00
2023-05-17T08:40:20.226Z,2.00
2023-05-17T08:42:50.607Z,2.42
2023-05-17T08:45:20.033Z,2.20
2023-05-17T08:47:49.221Z,2.25
2023-05-17T08:50:17.670Z,2.40
2023-05-17T08:52:48.040Z,2.55
2023-05-17T08:55:16.845Z,1.98
2023-05-17T08:57:47.135Z,2.25
2023-05-17T09:00:21.729Z,1.90
2023-05-17T09:02:50.861Z,2.10
2023-05-17T09:05:20.474Z,2.53
2023-05-17T09:07:50.541Z,1.77
2023-05-17T09:10:19.166Z,1.92
2023-05-17T09:12:47.990Z,2.17
2023-05-17T09:15:19.632Z,2.08
2023-05-17T09:17:53.811Z,2.03
2023-05-17T09:20:25.984Z,2.25
2023-05-17T09:22:54.337Z,1.98
2023-05-17T09:25:25.592Z,2.45
2023-05-17T09:27:54.607Z,2.05
2023-05-17T09:30:30.828Z,1.85
2023-05-17T09:32:59.702Z,2.17
2023-05-17T09:35:32.001Z,2.30
2023-05-17T09:38:09.250Z,2.13
2023-05-17T09:40:41.422Z,2.28
2023-05-17T09:43:10.380Z,2.08
2023-05-17T09:45:40.346Z,2.65
2023-05-17T09:48:16.447Z,1.90
2023-05-17T09:50:49.697Z,2.03
2023-05-17T09:53:25.966Z,2.47
2023-05-17T09:55:57.176Z,2.17
2023-05-17T09:58:28.744Z,2.15
2023-05-17T10:01:01.764Z,2.10
2023-05-17T10:03:34.416Z,1.98
2023-05-17T10:06:05.438Z,2.33
2023-05-17T10:08:36.656Z,2.47
2023-05-17T10:11:09.662Z,2.28
2023-05-17T10:13:45.005Z,2.30
2023-05-17T10:16:15.305Z,2.22
2023-05-17T10:18:44.331Z,1.98
2023-05-17T10:21:13.546Z,2.20
2023-05-17T10:23:44.273Z,1.90
2023-05-17T10:26:13.962Z,2.30
2023-05-17T10:28:43.550Z,2.78
2023-05-17T10:31:12.260Z,2.10
2023-05-17T10:33:43.032Z,2.10
2023-05-17T10:36:14.139Z,1.98
2023-05-17T10:38:43.233Z,2.20
2023-05-17T10:41:13.057Z,2.15
2023-05-17T10:43:43.436Z,1.90
2023-05-17T10:46:21.376Z,2.55
2023-05-17T10:48:53.336Z,2.47
2023-05-17T10:51:26.225Z,2.30
2023-05-17T10:54:09.219Z,2.60
2023-05-17T10:56:42.714Z,2.47
2023-05-17T10:59:19.874Z,2.38
2023-05-17T11:01:55.264Z,2.53
2023-05-17T11:04:29.628Z,2.20
2023-05-17T11:07:27.305Z,2.70
2023-05-17T11:10:06.011Z,2.20
2023-05-17T11:12:40.523Z,2.35
2023-05-17T11:15:11.513Z,2.28
2023-05-17T11:17:51.604Z,2.40
2023-05-17T11:20:37.916Z,2.38
2023-05-17T11:23:08.474Z,2.65
2023-05-17T11:25:38.419Z,2.17
2023-05-17T11:28:13.740Z,1.92
2023-05-17T11:30:51.156Z,2.00
2023-05-17T11:33:32.750Z,2.00
2023-05-17T11:36:08.364Z,2.22
2023-05-17T11:38:37.977Z,2.45
2023-05-17T11:43:52.063Z,1.90
2023-05-17T11:46:22.093Z,2.20
2023-05-17T11:48:54.171Z,2.20
2023-05-17T11:51:25.287Z,2.88
2023-05-17T11:53:56.713Z,2.00
2023-05-17T11:56:41.875Z,2.20
2023-05-17T11:59:12.516Z,2.65
2023-05-17T12:01:46.430Z,2.08
2023-05-17T12:04:15.151Z,2.47
2023-05-17T12:06:46.587Z,2.58
2023-05-17T12:09:17.882Z,2.42
2023-05-17T12:11:47.929Z,2.17
2023-05-17T12:14:18.080Z,2.63
2023-05-17T12:16:50.236Z,2.40
2023-05-17T12:19:20.258Z,2.72
2023-05-17T12:21:50.551Z,2.33
2023-05-17T12:24:19.392Z,2.72
2023-05-17T12:26:49.598Z,2.40
2023-05-17T12:29:23.035Z,2.65
2023-05-17T12:31:54.238Z,2.28
2023-05-17T12:34:23.770Z,2.40
2023-05-17T12:36:54.636Z,2.03
2023-05-17T12:39:24.671Z,2.92
2023-05-17T12:41:53.513Z,3.05
2023-05-17T12:44:22.118Z,2.63
2023-05-17T12:46:53.897Z,2.50
2023-05-17T12:49:23.215Z,2.67
2023-05-17T12:51:53.133Z,2.72
2023-05-17T12:54:29.775Z,2.53
2023-05-17T12:56:58.768Z,2.60
2023-05-17T12:59:29.111Z,2.70
2023-05-17T13:02:00.705Z,2.40
2023-05-17T13:04:33.918Z,2.55
2023-05-17T13:07:06.169Z,2.40
2023-05-17T13:09:36.503Z,2.90
2023-05-17T13:12:08.354Z,2.60
2023-05-17T13:14:38.752Z,2.72
2023-05-17T13:17:09.131Z,2.95
2023-05-17T13:19:38.434Z,2.50
2023-05-17T13:22:09.071Z,2.60
2023-05-17T13:24:39.671Z,2.53
2023-05-17T13:27:28.493Z,2.35
2023-05-17T13:29:58.114Z,2.28
2023-05-17T13:32:27.964Z,2.50
2023-05-17T13:34:57.189Z,3.20
2023-05-17T13:37:27.792Z,2.88
2023-05-17T13:39:59.788Z,3.03
2023-05-17T13:42:28.685Z,2.92
2023-05-17T13:44:57.531Z,3.17
2023-05-17T13:47:30.179Z,3.03
2023-05-17T13:50:01.546Z,2.67
2023-05-17T13:52:33.798Z,3.40
2023-05-17T13:55:02.483Z,2.92
2023-05-17T13:57:30.994Z,2.97
2023-05-17T14:00:02.016Z,3.10
2023-05-17T14:02:30.640Z,2.70
2023-05-17T14:04:59.292Z,3.08
2023-05-17T14:07:28.203Z,2.90
2023-05-17T14:09:58.483Z,2.97
2023-05-17T14:12:26.813Z,3.08
2023-05-17T14:14:55.181Z,3.47
2023-05-17T14:17:23.599Z,3.30
2023-05-17T14:19:52.686Z,3.33
2023-05-17T14:22:21.654Z,3.28
2023-05-17T14:24:53.012Z,2.85
2023-05-17T14:27:22.736Z,2.88
2023-05-17T14:29:51.072Z,3.38
2023-05-17T14:32:19.529Z,3.08
2023-05-17T14:34:49.375Z,3.00
2023-05-17T14:37:17.767Z,3.20
2023-05-17T14:39:55.198Z,3.58
2023-05-17T14:42:35.619Z,3.08
2023-05-17T14:45:03.987Z,2.60
2023-05-17T14:47:33.972Z,3.40
2023-05-17T14:50:04.090Z,2.95
2023-05-17T14:52:32.517Z,3.22
2023-05-17T14:55:01.290Z,3.30
2023-05-17T14:57:29.618Z,2.95
2023-05-17T15:00:00.617Z,3.30
2023-05-17T15:02:29.251Z,3.15
2023-05-17T15:04:57.795Z,3.20
2023-05-17T15:07:26.696Z,3.33
2023-05-17T15:09:55.114Z,3.00
2023-05-17T15:12:23.468Z,3.42
2023-05-17T15:14:52.401Z,3.00
2023-05-17T15:17:23.028Z,3.05
2023-05-17T15:19:52.308Z,2.95
2023-05-17T15:22:20.805Z,3.78
2023-05-17T15:24:49.186Z,3.05
2023-05-17T15:27:17.503Z,3.13
2023-05-17T15:29:45.823Z,3.75
2023-05-17T15:32:14.190Z,2.95
2023-05-17T15:34:45.094Z,3.00
2023-05-17T15:37:13.482Z,2.95
2023-05-17T15:39:41.804Z,3.00
2023-05-17T15:42:10.127Z,3.30
2023-05-17T15:44:38.520Z,2.95
2023-05-17T15:47:06.948Z,3.03
2023-05-17T15:49:35.541Z,3.40
2023-05-17T15:52:05.922Z,3.22
2023-05-17T15:54:34.402Z,3.40
2023-05-17T15:57:02.995Z,3.30
2023-05-17T15:59:31.662Z,3.40
2023-05-17T16:02:00.603Z,3.13
2023-05-17T16:04:29.714Z,3.38
2023-05-17T16:06:58.322Z,3.00
2023-05-17T16:09:29.062Z,3.65
2023-05-17T16:11:57.834Z,3.85
2023-05-17T16:14:26.645Z,3.53
2023-05-17T16:16:55.068Z,3.13
2023-05-17T16:19:26.532Z,3.10
2023-05-17T16:21:55.048Z,3.17
2023-05-17T16:24:23.747Z,3.33
2023-05-17T16:26:53.741Z,2.83
2023-05-17T16:29:22.189Z,3.03
2023-05-17T16:31:51.549Z,3.10
2023-05-17T16:34:20.325Z,3.25
2023-05-17T16:36:50.614Z,3.50
2023-05-17T16:39:19.179Z,3.88
2023-05-17T16:41:47.746Z,4.03
2023-05-17T16:44:17.411Z,3.42
2023-05-17T16:46:45.834Z,3.03
2023-05-17T16:49:14.213Z,2.97
2023-05-17T16:51:42.794Z,3.10
2023-05-17T16:54:11.106Z,2.97
2023-05-17T16:56:39.664Z,3.40
2023-05-17T16:59:08.076Z,3.65
2023-05-17T17:01:38.337Z,3.60
2023-05-17T17:04:07.127Z,3.40
2023-05-17T17:06:36.590Z,2.85
2023-05-17T17:09:08.295Z,3.20
2023-05-17T17:11:37.206Z,3.20
2023-05-17T17:14:08.306Z,3.55
2023-05-17T17:16:38.345Z,2.72
2023-05-17T17:19:07.253Z,3.65
2023-05-17T17:21:37.498Z,3.63
2023-05-17T17:24:06.940Z,3.63
2023-05-17T17:26:36.314Z,3.80
2023-05-17T17:29:05.482Z,3.15
2023-05-17T17:31:33.859Z,3.58
2023-05-17T17:34:04.046Z,3.47
2023-05-17T17:36:32.480Z,3.75
2023-05-17T17:39:01.130Z,3.25
2023-05-17T17:41:29.573Z,3.50
2023-05-17T17:43:57.967Z,3.28
2023-05-17T17:46:26.618Z,3.38
2023-05-17T17:48:56.927Z,3.83
2023-05-17T17:51:26.887Z,3.20
2023-05-17T17:53:55.324Z,3.25
2023-05-17T17:56:25.598Z,3.42
2023-05-17T17:58:56.127Z,3.42
2023-05-17T18:01:25.700Z,3.47
2023-05-17T18:03:54.360Z,3.42
2023-05-17T18:06:22.852Z,3.25
2023-05-17T18:08:52.789Z,3.95
2023-05-17T18:11:22.460Z,3.08
2023-05-17T18:13:51.087Z,2.83
2023-05-17T18:16:19.612Z,3.97
2023-05-17T18:18:48.328Z,3.65
2023-05-17T18:21:16.773Z,3.67
2023-05-17T18:23:45.233Z,3.33
2023-05-17T18:26:15.411Z,3.97
2023-05-17T18:28:44.029Z,3.50
2023-05-17T18:31:14.217Z,4.18
2023-05-17T18:33:42.899Z,3.00
2023-05-17T18:36:11.402Z,3.17
2023-05-17T18:38:39.813Z,3.50
2023-05-17T18:41:08.147Z,3.22
2023-05-17T18:43:38.176Z,3.75
2023-05-17T18:46:06.858Z,3.78
2023-05-17T18:48:36.635Z,3.35
2023-05-17T18:51:05.253Z,3.45
2023-05-17T18:53:33.857Z,2.75
2023-05-17T18:56:02.703Z,3.08
2023-05-17T18:58:31.626Z,3.83
2023-05-17T19:01:02.759Z,3.00
2023-05-17T19:03:32.016Z,2.90
2023-05-17T19:06:00.707Z,3.00
2023-05-17T19:08:29.140Z,2.67
2023-05-17T19:10:57.754Z,3.08
2023-05-17T19:13:27.321Z,3.38
2023-05-17T19:15:56.191Z,3.03
2023-05-17T19:18:26.365Z,3.30
2023-05-17T19:20:55.412Z,2.78
2023-05-17T19:23:24.622Z,2.60
2023-05-17T19:25:53.536Z,3.03
2023-05-17T19:28:22.570Z,2.85
2023-05-17T19:30:51.016Z,2.65
2023-05-17T19:33:19.485Z,2.88
2023-05-17T19:35:49.950Z,3.08
2023-05-17T19:38:18.442Z,3.00
2023-05-17T19:40:47.805Z,3.22
2023-05-17T19:43:16.264Z,3.00
2023-05-17T19:45:44.653Z,3.42
2023-05-17T19:48:13.304Z,3.20
2023-05-17T19:50:42.085Z,3.10
2023-05-17T19:53:12.456Z,3.20
2023-05-17T19:55:41.109Z,2.88
2023-05-17T19:58:09.531Z,3.35
2023-05-17T20:00:38.475Z,2.90
2023-05-17T20:03:07.785Z,2.78
2023-05-17T20:05:36.835Z,3.03
2023-05-17T20:08:08.178Z,4.22
2023-05-17T20:10:38.407Z,3.45
2023-05-17T20:13:07.037Z,3.22
2023-05-17T20:15:35.599Z,3.40
2023-05-17T20:18:09.703Z,3.22
2023-05-17T20:20:38.280Z,3.22
2023-05-17T20:23:10.052Z,3.30
2023-05-17T20:25:44.550Z,3.78
2023-05-17T20:28:12.948Z,3.30
2023-05-17T20:30:45.332Z,3.42
2023-05-17T20:33:15.229Z,3.53
2023-05-17T20:35:43.734Z,3.17
2023-05-17T20:38:21.319Z,3.10
2023-05-17T20:40:52.049Z,3.75
2023-05-17T20:43:29.396Z,3.10
2023-05-17T20:45:58.176Z,3.50
2023-05-17T20:48:29.648Z,3.20
2023-05-17T20:50:58.382Z,3.70
2023-05-17T20:53:26.889Z,3.13
2023-05-17T20:55:57.009Z,3.30
2023-05-17T20:58:25.878Z,3.50
2023-05-17T21:00:55.240Z,3.22
2023-05-17T21:03:28.580Z,4.57
2023-05-17T21:05:57.469Z,3.35
2023-05-17T21:08:26.099Z,3.80
2023-05-17T21:10:56.591Z,3.28
2023-05-17T21:13:28.046Z,3.22
2023-05-17T21:15:58.070Z,3.17
2023-05-17T21:18:26.792Z,3.35
2023-05-17T21:20:57.787Z,3.00
2023-05-17T21:23:26.551Z,3.05
2023-05-17T21:25:56.961Z,3.40
2023-05-17T21:28:25.794Z,3.30
2023-05-17T21:30:54.954Z,3.80
2023-05-17T21:33:23.601Z,3.60
2023-05-17T21:35:52.198Z,3.50
2023-05-17T21:38:20.953Z,3.53
2023-05-17T21:40:53.098Z,3.58
2023-05-17T21:43:22.922Z,3.47
2023-05-17T21:45:51.995Z,3.92
2023-05-17T21:48:20.434Z,3.20
2023-05-17T21:50:49.839Z,3.30
2023-05-17T21:53:18.288Z,3.08
2023-05-17T21:56:01.216Z,3.22
2023-05-17T21:58:33.157Z,3.10
2023-05-17T22:01:01.975Z,3.60
2023-05-17T22:03:30.625Z,3.55
2023-05-17T22:05:59.081Z,3.05
2023-05-17T22:08:27.703Z,3.20
2023-05-17T22:10:57.358Z,2.88
2023-05-17T22:13:26.881Z,3.15
2023-05-17T22:15:57.651Z,3.03
2023-05-17T22:18:27.532Z,2.70
2023-05-17T22:20:59.518Z,3.25
2023-05-17T22:23:28.198Z,2.70
2023-05-17T22:26:00.228Z,3.15
2023-05-17T22:28:28.942Z,2.97
2023-05-17T22:30:58.759Z,3.78
2023-05-17T22:33:29.692Z,3.78
2023-05-17T22:35:58.800Z,3.30
2023-05-17T22:38:27.401Z,3.58
2023-05-17T22:40:56.252Z,3.20
2023-05-17T22:43:25.986Z,2.58
2023-05-17T22:45:59.889Z,2.90
2023-05-17T22:48:30.363Z,2.95
2023-05-17T22:51:01.110Z,3.55
2023-05-17T22:53:29.745Z,3.15
2023-05-17T22:55:58.634Z,2.92
2023-05-17T22:58:26.974Z,3.35
2023-05-17T23:00:56.169Z,3.10
2023-05-17T23:03:24.560Z,3.03
2023-05-17T23:06:02.247Z,4.05
2023-05-17T23:08:31.021Z,3.22
2023-05-17T23:10:59.824Z,3.28
2023-05-17T23:13:28.385Z,3.67
2023-05-17T23:15:56.841Z,3.33
2023-05-17T23:18:27.515Z,3.55
2023-05-17T23:20:59.020Z,2.80
2023-05-17T23:23:30.105Z,3.42
2023-05-17T23:25:58.855Z,3.58
2023-05-17T23:28:27.451Z,3.38
2023-05-17T23:30:55.840Z,4.05
2023-05-17T23:33:24.584Z,3.38
2023-05-17T23:35:55.261Z,3.50
2023-05-17T23:38:25.035Z,3.75
2023-05-17T23:40:53.991Z,3.38
2023-05-17T23:43:22.344Z,3.13
2023-05-17T23:45:51.409Z,3.33
2023-05-17T23:48:20.876Z,2.92
2023-05-17T23:50:49.386Z,3.92
2023-05-17T23:53:18.721Z,3.60
2023-05-17T23:55:49.026Z,3.65
2023-05-17T23:58:17.449Z,3.42
